sensor_id;sensor_type;location;lat;lon;timestamp;P1;durP1;ratioP1;P2;durP2;ratioP2
61038;SDS011;46919;45.816;3.104;2023-11-19T00:02:18;8.23;;;5.63;;
61038;SDS011;46919;45.816;3.104;2023-11-19T00:04:44;8.65;;;5.63;;
61038;SDS011;46919;45.816;3.104;2023-11-19T00:07:09;7.65;;;5.53;;
61038;SDS011;46919;45.816;3.104;2023-11-19T00:09:37;8.48;;;5.32;;
61038;SDS011;46919;45.816;3.104;2023-11-19T00:12:06;7.95;;;5.35;;
61038;SDS011;46919;45.816;3.104;2023-11-19T00:14:32;7.88;;;6.10;;
61038;SDS011;46919;45.816;3.104;2023-11-19T00:17:00;7.60;;;5.25;;
61038;SDS011;46919;45.816;3.104;2023-11-19T00:19:26;7.88;;;5.35;;
61038;SDS011;46919;45.816;3.104;2023-11-19T00:21:51;7.80;;;5.35;;
61038;SDS011;46919;45.816;3.104;2023-11-19T00:24:17;9.90;;;5.95;;
61038;SDS011;46919;45.816;3.104;2023-11-19T00:26:43;8.10;;;5.65;;
61038;SDS011;46919;45.816;3.104;2023-11-19T00:29:08;6.80;;;5.15;;
61038;SDS011;46919;45.816;3.104;2023-11-19T00:31:34;7.95;;;5.15;;
61038;SDS011;46919;45.816;3.104;2023-11-19T00:34:00;9.88;;;4.80;;
61038;SDS011;46919;45.816;3.104;2023-11-19T00:36:26;8.05;;;5.13;;
61038;SDS011;46919;45.816;3.104;2023-11-19T00:38:52;10.82;;;7.13;;
61038;SDS011;46919;45.816;3.104;2023-11-19T00:41:17;13.27;;;7.88;;
61038;SDS011;46919;45.816;3.104;2023-11-19T00:43:43;17.48;;;9.98;;
61038;SDS011;46919;45.816;3.104;2023-11-19T00:46:08;18.77;;;10.30;;
61038;SDS011;46919;45.816;3.104;2023-11-19T00:48:35;17.15;;;10.10;;
61038;SDS011;46919;45.816;3.104;2023-11-19T00:51:01;13.63;;;8.57;;
61038;SDS011;46919;45.816;3.104;2023-11-19T00:53:26;11.23;;;6.45;;
61038;SDS011;46919;45.816;3.104;2023-11-19T00:55:52;11.73;;;6.85;;
61038;SDS011;46919;45.816;3.104;2023-11-19T00:58:17;10.82;;;7.18;;
61038;SDS011;46919;45.816;3.104;2023-11-19T01:00:43;11.45;;;6.55;;
61038;SDS011;46919;45.816;3.104;2023-11-19T01:03:08;8.93;;;6.07;;
61038;SDS011;46919;45.816;3.104;2023-11-19T01:05:34;10.60;;;6.20;;
61038;SDS011;46919;45.816;3.104;2023-11-19T01:07:59;11.35;;;6.80;;
61038;SDS011;46919;45.816;3.104;2023-11-19T01:10:25;9.23;;;6.20;;
61038;SDS011;46919;45.816;3.104;2023-11-19T01:12:51;13.30;;;8.70;;
61038;SDS011;46919;45.816;3.104;2023-11-19T01:15:17;11.07;;;6.93;;
61038;SDS011;46919;45.816;3.104;2023-11-19T01:17:43;9.85;;;6.20;;
61038;SDS011;46919;45.816;3.104;2023-11-19T01:20:09;8.73;;;6.13;;
61038;SDS011;46919;45.816;3.104;2023-11-19T01:22:37;8.93;;;5.82;;
61038;SDS011;46919;45.816;3.104;2023-11-19T01:25:02;8.55;;;5.80;;
61038;SDS011;46919;45.816;3.104;2023-11-19T01:27:30;7.82;;;5.55;;
61038;SDS011;46919;45.816;3.104;2023-11-19T01:29:56;8.73;;;4.97;;
61038;SDS011;46919;45.816;3.104;2023-11-19T01:32:21;7.68;;;5.60;;
61038;SDS011;46919;45.816;3.104;2023-11-19T01:34:48;6.82;;;4.90;;
61038;SDS011;46919;45.816;3.104;2023-11-19T01:37:14;12.63;;;5.97;;
61038;SDS011;46919;45.816;3.104;2023-11-19T01:39:39;12.07;;;7.03;;
61038;SDS011;46919;45.816;3.104;2023-11-19T01:42:05;15.85;;;8.20;;
61038;SDS011;46919;45.816;3.104;2023-11-19T01:44:30;13.05;;;7.50;;
61038;SDS011;46919;45.816;3.104;2023-11-19T01:46:57;14.60;;;8.20;;
61038;SDS011;46919;45.816;3.104;2023-11-19T01:49:22;27.38;;;12.77;;
61038;SDS011;46919;45.816;3.104;2023-11-19T01:51:48;14.55;;;8.30;;
61038;SDS011;46919;45.816;3.104;2023-11-19T01:54:14;10.43;;;5.82;;
61038;SDS011;46919;45.816;3.104;2023-11-19T01:56:40;8.40;;;5.15;;
61038;SDS011;46919;45.816;3.104;2023-11-19T01:59:07;10.10;;;5.90;;
61038;SDS011;46919;45.816;3.104;2023-11-19T02:01:34;8.82;;;5.90;;
61038;SDS011;46919;45.816;3.104;2023-11-19T02:04:04;8.15;;;5.47;;
61038;SDS011;46919;45.816;3.104;2023-11-19T02:06:31;36.28;;;13.88;;
61038;SDS011;46919;45.816;3.104;2023-11-19T02:08:59;10.77;;;6.40;;
61038;SDS011;46919;45.816;3.104;2023-11-19T02:11:25;10.45;;;7.15;;
61038;SDS011;46919;45.816;3.104;2023-11-19T02:13:54;8.73;;;6.53;;
61038;SDS011;46919;45.816;3.104;2023-11-19T02:16:22;11.00;;;6.50;;
61038;SDS011;46919;45.816;3.104;2023-11-19T02:18:47;9.05;;;5.40;;
61038;SDS011;46919;45.816;3.104;2023-11-19T02:21:13;7.28;;;4.70;;
61038;SDS011;46919;45.816;3.104;2023-11-19T02:23:40;8.25;;;5.15;;
61038;SDS011;46919;45.816;3.104;2023-11-19T02:31:05;11.25;;;6.22;;
61038;SDS011;46919;45.816;3.104;2023-11-19T02:33:34;10.95;;;5.75;;
61038;SDS011;46919;45.816;3.104;2023-11-19T02:36:00;10.20;;;6.72;;
61038;SDS011;46919;45.816;3.104;2023-11-19T02:38:26;7.93;;;6.18;;
61038;SDS011;46919;45.816;3.104;2023-11-19T02:40:51;16.02;;;8.43;;
61038;SDS011;46919;45.816;3.104;2023-11-19T02:43:17;10.85;;;6.45;;
61038;SDS011;46919;45.816;3.104;2023-11-19T02:45:43;10.93;;;6.40;;
61038;SDS011;46919;45.816;3.104;2023-11-19T02:48:10;10.95;;;6.18;;
61038;SDS011;46919;45.816;3.104;2023-11-19T02:50:36;13.07;;;6.75;;
61038;SDS011;46919;45.816;3.104;2023-11-19T02:53:01;8.68;;;6.18;;
61038;SDS011;46919;45.816;3.104;2023-11-19T02:55:27;10.88;;;6.72;;
61038;SDS011;46919;45.816;3.104;2023-11-19T02:57:55;14.75;;;7.22;;
61038;SDS011;46919;45.816;3.104;2023-11-19T03:00:24;9.40;;;6.40;;
61038;SDS011;46919;45.816;3.104;2023-11-19T03:02:52;11.23;;;6.80;;
61038;SDS011;46919;45.816;3.104;2023-11-19T03:05:24;12.20;;;7.10;;
61038;SDS011;46919;45.816;3.104;2023-11-19T03:07:51;12.68;;;7.47;;
61038;SDS011;46919;45.816;3.104;2023-11-19T03:10:17;10.43;;;6.50;;
61038;SDS011;46919;45.816;3.104;2023-11-19T03:12:43;9.45;;;5.93;;
61038;SDS011;46919;45.816;3.104;2023-11-19T03:15:10;9.00;;;5.97;;
61038;SDS011;46919;45.816;3.104;2023-11-19T03:17:38;9.18;;;5.95;;
61038;SDS011;46919;45.816;3.104;2023-11-19T03:20:06;9.48;;;5.53;;
61038;SDS011;46919;45.816;3.104;2023-11-19T03:22:34;7.95;;;5.38;;
61038;SDS011;46919;45.816;3.104;2023-11-19T03:25:01;9.25;;;6.38;;
61038;SDS011;46919;45.816;3.104;2023-11-19T03:27:27;7.72;;;5.80;;
61038;SDS011;46919;45.816;3.104;2023-11-19T03:29:52;7.78;;;5.35;;
61038;SDS011;46919;45.816;3.104;2023-11-19T03:32:18;8.02;;;5.88;;
61038;SDS011;46919;45.816;3.104;2023-11-19T03:34:43;8.95;;;5.78;;
61038;SDS011;46919;45.816;3.104;2023-11-19T03:37:09;7.72;;;5.35;;
61038;SDS011;46919;45.816;3.104;2023-11-19T03:39:34;8.77;;;5.40;;
61038;SDS011;46919;45.816;3.104;2023-11-19T03:42:00;8.15;;;5.72;;
61038;SDS011;46919;45.816;3.104;2023-11-19T03:44:26;7.38;;;5.28;;
61038;SDS011;46919;45.816;3.104;2023-11-19T03:46:52;4.80;;;2.22;;
61038;SDS011;46919;45.816;3.104;2023-11-19T03:49:17;3.97;;;1.77;;
61038;SDS011;46919;45.816;3.104;2023-11-19T03:51:43;4.90;;;1.70;;
61038;SDS011;46919;45.816;3.104;2023-11-19T03:54:08;5.85;;;1.67;;
61038;SDS011;46919;45.816;3.104;2023-11-19T03:56:34;5.13;;;1.92;;
61038;SDS011;46919;45.816;3.104;2023-11-19T03:58:59;3.47;;;1.83;;
61038;SDS011;46919;45.816;3.104;2023-11-19T04:01:24;3.10;;;1.80;;
61038;SDS011;46919;45.816;3.104;2023-11-19T04:03:50;3.70;;;2.17;;
61038;SDS011;46919;45.816;3.104;2023-11-19T04:06:15;3.60;;;2.10;;
61038;SDS011;46919;45.816;3.104;2023-11-19T04:08:41;5.68;;;2.08;;
61038;SDS011;46919;45.816;3.104;2023-11-19T04:11:06;5.35;;;2.28;;
61038;SDS011;46919;45.816;3.104;2023-11-19T04:13:33;5.15;;;1.98;;
61038;SDS011;46919;45.816;3.104;2023-11-19T04:15:59;4.60;;;2.00;;
61038;SDS011;46919;45.816;3.104;2023-11-19T04:18:25;3.85;;;2.20;;
61038;SDS011;46919;45.816;3.104;2023-11-19T04:20:50;4.28;;;2.20;;
61038;SDS011;46919;45.816;3.104;2023-11-19T04:23:16;3.08;;;2.17;;
61038;SDS011;46919;45.816;3.104;2023-11-19T04:25:41;5.13;;;2.50;;
61038;SDS011;46919;45.816;3.104;2023-11-19T04:28:06;4.93;;;2.50;;
61038;SDS011;46919;45.816;3.104;2023-11-19T04:30:33;2.47;;;1.80;;
61038;SDS011;46919;45.816;3.104;2023-11-19T04:32:58;2.28;;;1.70;;
61038;SDS011;46919;45.816;3.104;2023-11-19T04:35:23;3.65;;;1.63;;
61038;SDS011;46919;45.816;3.104;2023-11-19T04:37:51;2.92;;;1.75;;
61038;SDS011;46919;45.816;3.104;2023-11-19T04:40:16;1.55;;;1.30;;
61038;SDS011;46919;45.816;3.104;2023-11-19T04:42:43;2.88;;;1.50;;
61038;SDS011;46919;45.816;3.104;2023-11-19T04:45:09;4.40;;;1.65;;
61038;SDS011;46919;45.816;3.104;2023-11-19T04:47:35;5.95;;;1.50;;
61038;SDS011;46919;45.816;3.104;2023-11-19T04:50:04;3.35;;;1.70;;
61038;SDS011;46919;45.816;3.104;2023-11-19T04:52:30;2.45;;;1.55;;
61038;SDS011;46919;45.816;3.104;2023-11-19T04:54:55;2.35;;;1.50;;
61038;SDS011;46919;45.816;3.104;2023-11-19T04:57:20;2.20;;;1.50;;
61038;SDS011;46919;45.816;3.104;2023-11-19T04:59:46;3.80;;;1.52;;
61038;SDS011;46919;45.816;3.104;2023-11-19T05:02:11;2.55;;;1.60;;
61038;SDS011;46919;45.816;3.104;2023-11-19T05:04:37;2.88;;;1.30;;
61038;SDS011;46919;45.816;3.104;2023-11-19T05:07:08;1.98;;;1.45;;
61038;SDS011;46919;45.816;3.104;2023-11-19T05:09:33;5.15;;;1.40;;
61038;SDS011;46919;45.816;3.104;2023-11-19T05:11:58;4.90;;;1.40;;
61038;SDS011;46919;45.816;3.104;2023-11-19T05:14:24;5.13;;;1.75;;
61038;SDS011;46919;45.816;3.104;2023-11-19T05:16:49;2.40;;;1.60;;
61038;SDS011;46919;45.816;3.104;2023-11-19T05:19:15;4.53;;;1.70;;
61038;SDS011;46919;45.816;3.104;2023-11-19T05:21:43;2.35;;;1.48;;
61038;SDS011;46919;45.816;3.104;2023-11-19T05:24:09;2.75;;;1.48;;
61038;SDS011;46919;45.816;3.104;2023-11-19T05:26:34;3.78;;;1.52;;
61038;SDS011;46919;45.816;3.104;2023-11-19T05:29:00;3.88;;;1.50;;
61038;SDS011;46919;45.816;3.104;2023-11-19T05:31:25;3.25;;;1.50;;
61038;SDS011;46919;45.816;3.104;2023-11-19T05:33:50;2.63;;;1.75;;
61038;SDS011;46919;45.816;3.104;2023-11-19T05:36:16;5.97;;;1.77;;
61038;SDS011;46919;45.816;3.104;2023-11-19T05:38:42;5.18;;;1.50;;
61038;SDS011;46919;45.816;3.104;2023-11-19T05:41:07;4.68;;;2.50;;
61038;SDS011;46919;45.816;3.104;2023-11-19T05:43:32;3.60;;;2.00;;
61038;SDS011;46919;45.816;3.104;2023-11-19T05:45:58;6.38;;;1.55;;
61038;SDS011;46919;45.816;3.104;2023-11-19T05:48:25;4.70;;;1.80;;
61038;SDS011;46919;45.816;3.104;2023-11-19T05:50:51;6.90;;;1.50;;
61038;SDS011;46919;45.816;3.104;2023-11-19T05:53:17;3.10;;;1.70;;
61038;SDS011;46919;45.816;3.104;2023-11-19T05:55:42;2.83;;;1.52;;
61038;SDS011;46919;45.816;3.104;2023-11-19T05:58:19;2.95;;;1.70;;
61038;SDS011;46919;45.816;3.104;2023-11-19T06:00:47;4.47;;;1.70;;
61038;SDS011;46919;45.816;3.104;2023-11-19T06:03:12;3.70;;;1.35;;
61038;SDS011;46919;45.816;3.104;2023-11-19T06:05:38;7.90;;;2.08;;
61038;SDS011;46919;45.816;3.104;2023-11-19T06:08:03;3.78;;;1.88;;
61038;SDS011;46919;45.816;3.104;2023-11-19T06:10:29;9.15;;;1.90;;
61038;SDS011;46919;45.816;3.104;2023-11-19T06:12:59;7.50;;;1.58;;
61038;SDS011;46919;45.816;3.104;2023-11-19T06:15:28;5.40;;;1.50;;
61038;SDS011;46919;45.816;3.104;2023-11-19T06:17:53;5.75;;;1.20;;
61038;SDS011;46919;45.816;3.104;2023-11-19T06:20:19;6.10;;;1.20;;
61038;SDS011;46919;45.816;3.104;2023-11-19T06:22:45;3.13;;;1.20;;
61038;SDS011;46919;45.816;3.104;2023-11-19T06:25:11;4.68;;;1.05;;
61038;SDS011;46919;45.816;3.104;2023-11-19T06:27:36;2.83;;;1.00;;
61038;SDS011;46919;45.816;3.104;2023-11-19T06:30:02;5.90;;;1.05;;
61038;SDS011;46919;45.816;3.104;2023-11-19T06:32:27;1.95;;;1.13;;
61038;SDS011;46919;45.816;3.104;2023-11-19T06:34:53;7.35;;;1.05;;
61038;SDS011;46919;45.816;3.104;2023-11-19T06:37:19;3.80;;;1.10;;
61038;SDS011;46919;45.816;3.104;2023-11-19T06:39:44;5.63;;;1.98;;
61038;SDS011;46919;45.816;3.104;2023-11-19T06:42:10;3.70;;;1.02;;
61038;SDS011;46919;45.816;3.104;2023-11-19T06:44:35;4.78;;;1.10;;
61038;SDS011;46919;45.816;3.104;2023-11-19T06:47:01;4.30;;;1.00;;
61038;SDS011;46919;45.816;3.104;2023-11-19T06:49:26;3.40;;;1.10;;
61038;SDS011;46919;45.816;3.104;2023-11-19T06:51:51;5.07;;;1.30;;
61038;SDS011;46919;45.816;3.104;2023-11-19T06:54:17;4.68;;;1.20;;
61038;SDS011;46919;45.816;3.104;2023-11-19T06:56:42;4.63;;;0.82;;
61038;SDS011;46919;45.816;3.104;2023-11-19T06:59:08;2.30;;;1.10;;
61038;SDS011;46919;45.816;3.104;2023-11-19T07:01:35;4.97;;;1.27;;
61038;SDS011;46919;45.816;3.104;2023-11-19T07:04:01;2.55;;;1.20;;
61038;SDS011;46919;45.816;3.104;2023-11-19T07:06:33;4.20;;;1.63;;
61038;SDS011;46919;45.816;3.104;2023-11-19T07:08:58;4.10;;;1.17;;
61038;SDS011;46919;45.816;3.104;2023-11-19T07:11:23;8.10;;;1.15;;
61038;SDS011;46919;45.816;3.104;2023-11-19T07:13:49;6.00;;;1.48;;
61038;SDS011;46919;45.816;3.104;2023-11-19T07:16:15;5.78;;;1.83;;
61038;SDS011;46919;45.816;3.104;2023-11-19T07:18:40;5.25;;;1.58;;
61038;SDS011;46919;45.816;3.104;2023-11-19T07:21:08;2.63;;;1.10;;
61038;SDS011;46919;45.816;3.104;2023-11-19T07:23:35;2.25;;;0.90;;
61038;SDS011;46919;45.816;3.104;2023-11-19T07:26:00;4.75;;;1.38;;
61038;SDS011;46919;45.816;3.104;2023-11-19T07:28:26;5.07;;;1.48;;
61038;SDS011;46919;45.816;3.104;2023-11-19T07:30:53;5.07;;;1.10;;
61038;SDS011;46919;45.816;3.104;2023-11-19T07:33:21;2.72;;;1.10;;
61038;SDS011;46919;45.816;3.104;2023-11-19T07:35:46;3.95;;;1.00;;
61038;SDS011;46919;45.816;3.104;2023-11-19T07:38:11;3.08;;;1.20;;
61038;SDS011;46919;45.816;3.104;2023-11-19T07:40:37;6.28;;;1.10;;
61038;SDS011;46919;45.816;3.104;2023-11-19T07:43:02;4.40;;;1.48;;
61038;SDS011;46919;45.816;3.104;2023-11-19T07:45:28;6.18;;;2.42;;
61038;SDS011;46919;45.816;3.104;2023-11-19T07:47:53;4.75;;;1.50;;
61038;SDS011;46919;45.816;3.104;2023-11-19T07:50:19;3.47;;;1.30;;
61038;SDS011;46919;45.816;3.104;2023-11-19T07:52:45;4.32;;;1.65;;
61038;SDS011;46919;45.816;3.104;2023-11-19T07:55:10;2.92;;;1.42;;
61038;SDS011;46919;45.816;3.104;2023-11-19T07:57:37;4.80;;;1.40;;
61038;SDS011;46919;45.816;3.104;2023-11-19T08:00:02;3.78;;;1.33;;
61038;SDS011;46919;45.816;3.104;2023-11-19T08:02:29;9.32;;;3.92;;
61038;SDS011;46919;45.816;3.104;2023-11-19T08:04:54;7.22;;;5.10;;
61038;SDS011;46919;45.816;3.104;2023-11-19T08:07:20;14.10;;;8.90;;
61038;SDS011;46919;45.816;3.104;2023-11-19T08:09:48;8.30;;;2.90;;
61038;SDS011;46919;45.816;3.104;2023-11-19T08:12:14;3.00;;;1.48;;
61038;SDS011;46919;45.816;3.104;2023-11-19T08:14:41;2.72;;;1.20;;
61038;SDS011;46919;45.816;3.104;2023-11-19T08:17:08;6.15;;;1.58;;
61038;SDS011;46919;45.816;3.104;2023-11-19T08:19:34;5.55;;;2.88;;
61038;SDS011;46919;45.816;3.104;2023-11-19T08:21:59;7.97;;;1.65;;
61038;SDS011;46919;45.816;3.104;2023-11-19T08:24:25;6.78;;;1.77;;
61038;SDS011;46919;45.816;3.104;2023-11-19T08:26:50;4.38;;;2.13;;
61038;SDS011;46919;45.816;3.104;2023-11-19T08:29:15;5.68;;;1.95;;
61038;SDS011;46919;45.816;3.104;2023-11-19T08:31:41;6.75;;;1.58;;
61038;SDS011;46919;45.816;3.104;2023-11-19T08:34:07;4.95;;;1.95;;
61038;SDS011;46919;45.816;3.104;2023-11-19T08:36:35;5.35;;;2.63;;
61038;SDS011;46919;45.816;3.104;2023-11-19T08:39:00;6.47;;;1.67;;
61038;SDS011;46919;45.816;3.104;2023-11-19T08:41:26;6.55;;;1.40;;
61038;SDS011;46919;45.816;3.104;2023-11-19T08:43:52;6.18;;;2.10;;
61038;SDS011;46919;45.816;3.104;2023-11-19T08:46:17;5.05;;;1.50;;
61038;SDS011;46919;45.816;3.104;2023-11-19T08:48:43;2.78;;;1.25;;
61038;SDS011;46919;45.816;3.104;2023-11-19T08:51:08;5.13;;;1.70;;
61038;SDS011;46919;45.816;3.104;2023-11-19T08:53:34;6.00;;;1.50;;
61038;SDS011;46919;45.816;3.104;2023-11-19T08:55:59;4.97;;;1.20;;
61038;SDS011;46919;45.816;3.104;2023-11-19T08:58:25;8.48;;;1.80;;
61038;SDS011;46919;45.816;3.104;2023-11-19T09:00:51;5.88;;;1.75;;
61038;SDS011;46919;45.816;3.104;2023-11-19T09:03:16;3.80;;;1.75;;
61038;SDS011;46919;45.816;3.104;2023-11-19T09:05:42;5.43;;;1.65;;
61038;SDS011;46919;45.816;3.104;2023-11-19T09:08:07;4.90;;;1.40;;
61038;SDS011;46919;45.816;3.104;2023-11-19T09:10:33;7.32;;;1.77;;
61038;SDS011;46919;45.816;3.104;2023-11-19T09:12:58;8.63;;;2.03;;
61038;SDS011;46919;45.816;3.104;2023-11-19T09:15:24;10.70;;;2.53;;
61038;SDS011;46919;45.816;3.104;2023-11-19T09:17:49;6.57;;;2.10;;
61038;SDS011;46919;45.816;3.104;2023-11-19T09:20:14;6.15;;;1.55;;
61038;SDS011;46919;45.816;3.104;2023-11-19T09:22:40;9.70;;;2.35;;
61038;SDS011;46919;45.816;3.104;2023-11-19T09:25:08;5.70;;;1.98;;
61038;SDS011;46919;45.816;3.104;2023-11-19T09:27:34;6.93;;;1.75;;
61038;SDS011;46919;45.816;3.104;2023-11-19T09:30:00;5.55;;;1.92;;
61038;SDS011;46919;45.816;3.104;2023-11-19T09:32:25;6.57;;;1.80;;
61038;SDS011;46919;45.816;3.104;2023-11-19T09:34:51;5.70;;;1.67;;
61038;SDS011;46919;45.816;3.104;2023-11-19T09:37:16;3.47;;;1.30;;
61038;SDS011;46919;45.816;3.104;2023-11-19T09:39:41;4.53;;;1.40;;
61038;SDS011;46919;45.816;3.104;2023-11-19T09:42:12;5.38;;;1.70;;
61038;SDS011;46919;45.816;3.104;2023-11-19T09:44:37;5.70;;;1.70;;
61038;SDS011;46919;45.816;3.104;2023-11-19T09:47:05;4.57;;;1.33;;
61038;SDS011;46919;45.816;3.104;2023-11-19T09:49:32;6.80;;;1.52;;
61038;SDS011;46919;45.816;3.104;2023-11-19T09:52:00;7.97;;;1.60;;
61038;SDS011;46919;45.816;3.104;2023-11-19T09:54:27;5.72;;;1.40;;
61038;SDS011;46919;45.816;3.104;2023-11-19T09:56:53;6.40;;;1.38;;
61038;SDS011;46919;45.816;3.104;2023-11-19T09:59:19;7.07;;;1.52;;
61038;SDS011;46919;45.816;3.104;2023-11-19T10:01:45;4.72;;;1.33;;
61038;SDS011;46919;45.816;3.104;2023-11-19T10:04:10;5.13;;;1.63;;
61038;SDS011;46919;45.816;3.104;2023-11-19T10:06:42;3.85;;;1.15;;
61038;SDS011;46919;45.816;3.104;2023-11-19T10:09:09;5.00;;;1.10;;
61038;SDS011;46919;45.816;3.104;2023-11-19T10:11:34;4.45;;;1.10;;
61038;SDS011;46919;45.816;3.104;2023-11-19T10:13:59;3.75;;;1.27;;
61038;SDS011;46919;45.816;3.104;2023-11-19T10:16:29;4.25;;;1.20;;
61038;SDS011;46919;45.816;3.104;2023-11-19T10:18:56;5.15;;;1.00;;
61038;SDS011;46919;45.816;3.104;2023-11-19T10:21:21;4.40;;;1.20;;
61038;SDS011;46919;45.816;3.104;2023-11-19T10:23:51;6.03;;;1.30;;
61038;SDS011;46919;45.816;3.104;2023-11-19T10:26:19;4.15;;;1.10;;
61038;SDS011;46919;45.816;3.104;2023-11-19T10:28:46;6.35;;;1.67;;
61038;SDS011;46919;45.816;3.104;2023-11-19T10:31:15;5.53;;;1.58;;
61038;SDS011;46919;45.816;3.104;2023-11-19T10:33:42;3.63;;;1.25;;
61038;SDS011;46919;45.816;3.104;2023-11-19T10:36:10;3.05;;;0.77;;
61038;SDS011;46919;45.816;3.104;2023-11-19T10:38:37;2.55;;;0.80;;
61038;SDS011;46919;45.816;3.104;2023-11-19T10:41:03;2.40;;;0.70;;
61038;SDS011;46919;45.816;3.104;2023-11-19T10:43:30;1.55;;;0.70;;
61038;SDS011;46919;45.816;3.104;2023-11-19T10:46:17;2.28;;;0.63;;
61038;SDS011;46919;45.816;3.104;2023-11-19T10:48:46;1.25;;;0.77;;
61038;SDS011;46919;45.816;3.104;2023-11-19T10:51:11;3.47;;;0.70;;
61038;SDS011;46919;45.816;3.104;2023-11-19T10:53:46;3.80;;;0.65;;
61038;SDS011;46919;45.816;3.104;2023-11-19T10:56:15;1.73;;;0.63;;
61038;SDS011;46919;45.816;3.104;2023-11-19T10:58:44;3.33;;;0.70;;
61038;SDS011;46919;45.816;3.104;2023-11-19T11:01:16;2.45;;;0.70;;
61038;SDS011;46919;45.816;3.104;2023-11-19T11:03:46;1.05;;;0.60;;
61038;SDS011;46919;45.816;3.104;2023-11-19T11:06:12;2.65;;;0.75;;
61038;SDS011;46919;45.816;3.104;2023-11-19T11:08:38;1.08;;;0.50;;
61038;SDS011;46919;45.816;3.104;2023-11-19T11:11:04;2.85;;;0.85;;
61038;SDS011;46919;45.816;3.104;2023-11-19T11:13:31;1.58;;;0.80;;
61038;SDS011;46919;45.816;3.104;2023-11-19T11:15:58;0.88;;;0.70;;
61038;SDS011;46919;45.816;3.104;2023-11-19T11:18:24;4.05;;;0.77;;
61038;SDS011;46919;45.816;3.104;2023-11-19T11:20:54;1.52;;;0.60;;
61038;SDS011;46919;45.816;3.104;2023-11-19T11:28:58;1.65;;;0.50;;
61038;SDS011;46919;45.816;3.104;2023-11-19T11:34:31;1.33;;;0.52;;
61038;SDS011;46919;45.816;3.104;2023-11-19T11:40:04;6.80;;;2.83;;
61038;SDS011;46919;45.816;3.104;2023-11-19T11:42:38;3.88;;;0.60;;
61038;SDS011;46919;45.816;3.104;2023-11-19T11:45:07;0.93;;;0.60;;
61038;SDS011;46919;45.816;3.104;2023-11-19T11:50:15;0.55;;;0.30;;
61038;SDS011;46919;45.816;3.104;2023-11-19T11:53:15;0.85;;;0.43;;
61038;SDS011;46919;45.816;3.104;2023-11-19T11:58:17;2.35;;;0.40;;
61038;SDS011;46919;45.816;3.104;2023-11-19T12:00:43;1.15;;;0.60;;
61038;SDS011;46919;45.816;3.104;2023-11-19T12:03:10;1.25;;;1.00;;
61038;SDS011;46919;45.816;3.104;2023-11-19T12:05:43;3.17;;;1.15;;
61038;SDS011;46919;45.816;3.104;2023-11-19T12:08:10;0.50;;;0.30;;
61038;SDS011;46919;45.816;3.104;2023-11-19T12:10:38;0.93;;;0.40;;
61038;SDS011;46919;45.816;3.104;2023-11-19T12:13:14;1.20;;;0.30;;
61038;SDS011;46919;45.816;3.104;2023-11-19T12:18:31;0.85;;;0.30;;
61038;SDS011;46919;45.816;3.104;2023-11-19T12:20:57;0.70;;;0.40;;
61038;SDS011;46919;45.816;3.104;2023-11-19T12:23:30;1.00;;;0.57;;
61038;SDS011;46919;45.816;3.104;2023-11-19T12:25:56;2.22;;;0.50;;
61038;SDS011;46919;45.816;3.104;2023-11-19T12:28:23;0.20;;;0.20;;
61038;SDS011;46919;45.816;3.104;2023-11-19T12:30:51;1.40;;;0.40;;
61038;SDS011;46919;45.816;3.104;2023-11-19T12:33:18;0.38;;;0.38;;
61038;SDS011;46919;45.816;3.104;2023-11-19T12:35:45;0.35;;;0.30;;
61038;SDS011;46919;45.816;3.104;2023-11-19T12:40:46;2.83;;;1.17;;
61038;SDS011;46919;45.816;3.104;2023-11-19T12:43:15;0.80;;;0.50;;
61038;SDS011;46919;45.816;3.104;2023-11-19T12:45:46;1.08;;;0.60;;
61038;SDS011;46919;45.816;3.104;2023-11-19T12:48:11;2.47;;;1.13;;
61038;SDS011;46919;45.816;3.104;2023-11-19T12:53:19;0.70;;;0.20;;
61038;SDS011;46919;45.816;3.104;2023-11-19T12:55:44;0.20;;;0.20;;
61038;SDS011;46919;45.816;3.104;2023-11-19T12:58:10;0.73;;;0.30;;
61038;SDS011;46919;45.816;3.104;2023-11-19T13:00:35;1.55;;;0.63;;
61038;SDS011;46919;45.816;3.104;2023-11-19T13:03:01;0.55;;;0.40;;
61038;SDS011;46919;45.816;3.104;2023-11-19T13:08:05;0.25;;;0.20;;
61038;SDS011;46919;45.816;3.104;2023-11-19T13:10:32;0.30;;;0.30;;
61038;SDS011;46919;45.816;3.104;2023-11-19T13:13:03;0.63;;;0.43;;
61038;SDS011;46919;45.816;3.104;2023-11-19T13:15:30;0.32;;;0.30;;
61038;SDS011;46919;45.816;3.104;2023-11-19T13:17:57;1.75;;;0.20;;
61038;SDS011;46919;45.816;3.104;2023-11-19T13:20:22;0.25;;;0.15;;
61038;SDS011;46919;45.816;3.104;2023-11-19T13:22:58;0.32;;;0.32;;
61038;SDS011;46919;45.816;3.104;2023-11-19T13:25:25;0.35;;;0.35;;
61038;SDS011;46919;45.816;3.104;2023-11-19T13:27:51;0.47;;;0.30;;
61038;SDS011;46919;45.816;3.104;2023-11-19T13:30:17;0.43;;;0.32;;
61038;SDS011;46919;45.816;3.104;2023-11-19T13:32:42;0.68;;;0.32;;
61038;SDS011;46919;45.816;3.104;2023-11-19T13:35:09;0.85;;;0.38;;
61038;SDS011;46919;45.816;3.104;2023-11-19T13:37:35;1.15;;;0.40;;
61038;SDS011;46919;45.816;3.104;2023-11-19T13:40:00;0.63;;;0.30;;
61038;SDS011;46919;45.816;3.104;2023-11-19T13:42:25;0.82;;;0.30;;
61038;SDS011;46919;45.816;3.104;2023-11-19T13:44:52;0.85;;;0.20;;
61038;SDS011;46919;45.816;3.104;2023-11-19T13:47:17;0.57;;;0.30;;
61038;SDS011;46919;45.816;3.104;2023-11-19T13:49:44;0.88;;;0.20;;
61038;SDS011;46919;45.816;3.104;2023-11-19T13:52:09;0.40;;;0.17;;
61038;SDS011;46919;45.816;3.104;2023-11-19T13:54:36;0.55;;;0.20;;
61038;SDS011;46919;45.816;3.104;2023-11-19T13:57:01;0.28;;;0.20;;
61038;SDS011;46919;45.816;3.104;2023-11-19T13:59:29;0.73;;;0.50;;
61038;SDS011;46919;45.816;3.104;2023-11-19T14:01:56;0.40;;;0.30;;
61038;SDS011;46919;45.816;3.104;2023-11-19T14:04:21;1.42;;;0.50;;
61038;SDS011;46919;45.816;3.104;2023-11-19T14:06:46;0.90;;;0.30;;
61038;SDS011;46919;45.816;3.104;2023-11-19T14:09:12;0.30;;;0.25;;
61038;SDS011;46919;45.816;3.104;2023-11-19T14:11:38;1.65;;;0.20;;
61038;SDS011;46919;45.816;3.104;2023-11-19T14:14:03;0.98;;;0.28;;
61038;SDS011;46919;45.816;3.104;2023-11-19T14:16:29;1.40;;;0.73;;
61038;SDS011;46919;45.816;3.104;2023-11-19T14:18:54;5.50;;;3.85;;
61038;SDS011;46919;45.816;3.104;2023-11-19T14:21:20;0.20;;;0.20;;
61038;SDS011;46919;45.816;3.104;2023-11-19T14:23:45;0.20;;;0.10;;
61038;SDS011;46919;45.816;3.104;2023-11-19T14:26:11;0.73;;;0.20;;
61038;SDS011;46919;45.816;3.104;2023-11-19T14:28:37;0.20;;;0.20;;
61038;SDS011;46919;45.816;3.104;2023-11-19T14:31:03;0.25;;;0.20;;
61038;SDS011;46919;45.816;3.104;2023-11-19T14:33:29;0.22;;;0.15;;
61038;SDS011;46919;45.816;3.104;2023-11-19T14:35:54;0.20;;;0.20;;
61038;SDS011;46919;45.816;3.104;2023-11-19T14:38:19;0.55;;;0.25;;
61038;SDS011;46919;45.816;3.104;2023-11-19T14:40:45;0.30;;;0.25;;
61038;SDS011;46919;45.816;3.104;2023-11-19T14:43:10;0.20;;;0.20;;
61038;SDS011;46919;45.816;3.104;2023-11-19T14:45:36;0.43;;;0.20;;
61038;SDS011;46919;45.816;3.104;2023-11-19T14:48:01;0.95;;;0.20;;
61038;SDS011;46919;45.816;3.104;2023-11-19T14:50:27;1.50;;;0.40;;
61038;SDS011;46919;45.816;3.104;2023-11-19T14:52:53;0.63;;;0.30;;
61038;SDS011;46919;45.816;3.104;2023-11-19T14:55:18;0.77;;;0.30;;
61038;SDS011;46919;45.816;3.104;2023-11-19T14:57:44;1.63;;;0.20;;
61038;SDS011;46919;45.816;3.104;2023-11-19T15:00:09;0.40;;;0.30;;
61038;SDS011;46919;45.816;3.104;2023-11-19T15:02:41;2.22;;;0.52;;
61038;SDS011;46919;45.816;3.104;2023-11-19T15:05:07;1.48;;;0.30;;
61038;SDS011;46919;45.816;3.104;2023-11-19T15:07:35;0.45;;;0.20;;
61038;SDS011;46919;45.816;3.104;2023-11-19T15:10:01;1.15;;;0.30;;
61038;SDS011;46919;45.816;3.104;2023-11-19T15:12:27;1.45;;;0.32;;
61038;SDS011;46919;45.816;3.104;2023-11-19T15:14:53;0.40;;;0.30;;